Time;durP1;ratioP1;P1;durP2;ratioP2;P2;SDS_P1;SDS_P2;PMS_P1;PMS_P2;Temp;Humidity;BMP_temperature;BMP_pressure;BME280_temperature;BME280_humidity;BME280_pressure;Samples;Min_cycle;Max_cycle;Signal;HPM_P1;HPM_P2
2023/04/19 00:00:16;;;;;;;2.10;1.20;;;;;;;;;;4932106;29;20051;-59
2023/04/19 00:02:44;;;;;;;2.50;1.40;;;;;;;;;;4931508;29;20551;-59
2023/04/19 00:05:12;;;;;;;6.03;1.83;;;;;;;;;;4933319;29;20051;-59
2023/04/19 00:07:41;;;;;;;2.80;1.33;;;;;;;;;;4928412;29;20378;-59
2023/04/19 00:10:10;;;;;;;3.75;1.33;;;;;;;;;;4933114;29;20061;-60
2023/04/19 00:12:38;;;;;;;1.58;1.45;;;;;;;;;;4928569;29;20079;-59
2023/04/19 00:15:08;;;;;;;3.58;1.75;;;;;;;;;;4928604;29;20055;-59
2023/04/19 00:17:37;;;;;;;5.80;1.35;;;;;;;;;;4930403;29;20056;-60
2023/04/19 00:20:07;;;;;;;5.32;1.85;;;;;;;;;;4932578;29;20421;-59
2023/04/19 00:22:35;;;;;;;2.95;1.25;;;;;;;;;;4935360;29;20059;-59
2023/04/19 00:25:03;;;;;;;2.00;1.33;;;;;;;;;;4930454;29;20062;-60
2023/04/19 00:27:32;;;;;;;5.35;1.65;;;;;;;;;;4932918;28;20165;-59
2023/04/19 00:30:00;;;;;;;4.68;2.08;;;;;;;;;;4933411;29;20047;-59
2023/04/19 00:32:30;;;;;;;5.05;1.88;;;;;;;;;;4929916;29;20051;-60
2023/04/19 00:34:58;;;;;;;3.00;1.65;;;;;;;;;;4936667;29;20075;-59
2023/04/19 00:37:26;;;;;;;2.72;1.58;;;;;;;;;;4930728;29;20043;-60
2023/04/19 00:39:55;;;;;;;6.05;2.05;;;;;;;;;;4934777;29;20074;-60
2023/04/19 00:42:23;;;;;;;1.95;1.67;;;;;;;;;;4930533;29;20047;-59
2023/04/19 00:44:51;;;;;;;2.88;1.55;;;;;;;;;;4930987;29;20052;-57
2023/04/19 00:47:20;;;;;;;4.88;2.40;;;;;;;;;;4930914;29;20051;-59
2023/04/19 00:49:49;;;;;;;5.05;2.10;;;;;;;;;;4930732;29;20907;-59
2023/04/19 00:52:18;;;;;;;5.70;2.33;;;;;;;;;;4934964;29;20039;-60
2023/04/19 00:54:46;;;;;;;3.42;1.58;;;;;;;;;;4931359;29;20075;-59
2023/04/19 00:57:15;;;;;;;7.78;3.42;;;;;;;;;;4929601;28;20521;-60
2023/04/19 00:59:44;;;;;;;2.53;1.50;;;;;;;;;;4929739;28;20055;-60
2023/04/19 01:02:13;;;;;;;4.13;1.60;;;;;;;;;;4945095;23;20043;-60
2023/04/19 01:04:41;;;;;;;3.90;1.48;;;;;;;;;;4936318;29;20477;-64
2023/04/19 01:07:11;;;;;;;4.32;1.40;;;;;;;;;;4935941;29;20051;-65
2023/04/19 01:09:41;;;;;;;1.50;1.23;;;;;;;;;;4936277;29;20074;-58
2023/04/19 01:12:09;;;;;;;5.80;1.83;;;;;;;;;;4936684;29;20063;-58
2023/04/19 01:14:37;;;;;;;1.90;1.55;;;;;;;;;;4935789;29;20067;-60
2023/04/19 01:17:06;;;;;;;6.05;2.40;;;;;;;;;;4935938;29;20058;-63
2023/04/19 01:19:35;;;;;;;5.72;2.35;;;;;;;;;;4936345;29;20094;-65
2023/04/19 01:22:05;;;;;;;4.90;2.15;;;;;;;;;;4935600;29;20496;-66
2023/04/19 01:24:35;;;;;;;5.07;2.05;;;;;;;;;;4935451;29;20083;-61
2023/04/19 01:27:03;;;;;;;2.30;1.48;;;;;;;;;;4935830;29;20051;-63
2023/04/19 01:29:34;;;;;;;5.75;2.38;;;;;;;;;;4936174;29;20051;-63
2023/04/19 01:32:03;;;;;;;2.35;2.15;;;;;;;;;;4935574;29;20053;-63
2023/04/19 01:34:31;;;;;;;4.78;2.15;;;;;;;;;;4936324;29;20138;-65
2023/04/19 01:36:59;;;;;;;6.03;2.38;;;;;;;;;;4928944;29;20056;-63
2023/04/19 01:39:28;;;;;;;4.20;1.88;;;;;;;;;;4922186;29;20062;-62
2023/04/19 01:41:57;;;;;;;3.72;1.63;;;;;;;;;;4923180;29;20055;-62
2023/04/19 01:44:26;;;;;;;5.40;2.05;;;;;;;;;;4919961;29;20052;-68
2023/04/19 01:46:54;;;;;;;2.78;1.98;;;;;;;;;;4922154;28;20043;-67
2023/04/19 01:49:23;;;;;;;5.10;1.90;;;;;;;;;;4925299;29;20404;-63
2023/04/19 01:51:51;;;;;;;3.58;1.85;;;;;;;;;;4924289;29;20051;-62
2023/04/19 01:54:19;;;;;;;5.60;2.17;;;;;;;;;;4922258;29;20047;-62
2023/04/19 01:56:48;;;;;;;6.85;2.63;;;;;;;;;;4922687;29;20055;-64
2023/04/19 01:59:17;;;;;;;8.00;3.97;;;;;;;;;;4924916;29;20600;-64
2023/04/19 02:01:46;;;;;;;6.40;3.17;;;;;;;;;;4922797;29;20059;-62
2023/04/19 02:04:14;;;;;;;5.88;2.58;;;;;;;;;;4922105;29;20051;-68
2023/04/19 02:06:43;;;;;;;6.28;2.78;;;;;;;;;;4921273;28;20051;-63
2023/04/19 02:09:11;;;;;;;5.45;2.67;;;;;;;;;;4919830;29;20298;-64
2023/04/19 02:11:39;;;;;;;6.65;2.65;;;;;;;;;;4922738;29;20055;-63
2023/04/19 02:14:08;;;;;;;6.22;2.45;;;;;;;;;;4919836;29;20082;-64
2023/04/19 02:16:37;;;;;;;6.90;2.85;;;;;;;;;;4924525;28;20055;-64
2023/04/19 02:19:06;;;;;;;9.05;2.33;;;;;;;;;;4922194;29;20107;-66
2023/04/19 02:21:34;;;;;;;3.83;1.70;;;;;;;;;;4923495;29;20052;-66
2023/04/19 02:24:02;;;;;;;4.53;1.52;;;;;;;;;;4921544;29;22690;-63
2023/04/19 02:26:31;;;;;;;4.07;2.33;;;;;;;;;;4925452;28;20417;-62
2023/04/19 02:28:59;;;;;;;5.97;1.85;;;;;;;;;;4921345;29;20048;-63
2023/04/19 02:31:27;;;;;;;4.28;2.55;;;;;;;;;;4922304;29;20047;-66
2023/04/19 02:33:57;;;;;;;7.95;2.58;;;;;;;;;;4922675;29;20056;-62
2023/04/19 02:36:26;;;;;;;6.43;2.67;;;;;;;;;;4924777;28;20051;-64
2023/04/19 02:38:54;;;;;;;7.38;2.60;;;;;;;;;;4922644;29;20052;-68
2023/04/19 02:41:22;;;;;;;5.93;3.33;;;;;;;;;;4923888;29;20055;-67
2023/04/19 02:43:50;;;;;;;13.40;3.17;;;;;;;;;;4922275;29;20079;-65
2023/04/19 02:46:19;;;;;;;6.05;2.70;;;;;;;;;;4924178;28;20500;-62
2023/04/19 02:48:47;;;;;;;6.85;3.05;;;;;;;;;;4919580;29;20052;-65
2023/04/19 02:51:17;;;;;;;5.82;2.53;;;;;;;;;;4921377;29;20051;-63
2023/04/19 02:53:46;;;;;;;7.85;2.58;;;;;;;;;;4922021;29;20150;-65
2023/04/19 02:56:15;;;;;;;8.98;2.80;;;;;;;;;;4920230;28;20135;-63
2023/04/19 02:58:43;;;;;;;5.20;2.58;;;;;;;;;;4922198;29;20123;-62
2023/04/19 03:01:11;;;;;;;5.97;2.42;;;;;;;;;;4917523;29;20044;-61
2023/04/19 03:03:40;;;;;;;12.35;2.08;;;;;;;;;;4921386;29;20134;-66
2023/04/19 03:06:09;;;;;;;5.85;2.75;;;;;;;;;;4919894;28;20902;-62
2023/04/19 03:08:39;;;;;;;13.23;3.08;;;;;;;;;;4922144;29;20058;-64
2023/04/19 03:11:07;;;;;;;6.88;3.08;;;;;;;;;;4918621;29;20063;-63
2023/04/19 03:13:36;;;;;;;6.53;2.17;;;;;;;;;;4923756;29;20409;-69
2023/04/19 03:16:05;;;;;;;5.20;2.60;;;;;;;;;;4922824;28;20523;-62
2023/04/19 03:18:33;;;;;;;5.68;3.15;;;;;;;;;;4921935;29;20056;-69
2023/04/19 03:21:01;;;;;;;8.23;2.92;;;;;;;;;;4919163;29;20075;-61
2023/04/19 03:23:30;;;;;;;4.95;2.67;;;;;;;;;;4922116;29;20058;-62
2023/04/19 03:26:00;;;;;;;8.80;2.55;;;;;;;;;;4922092;28;20052;-65
2023/04/19 03:28:28;;;;;;;6.57;2.88;;;;;;;;;;4921308;29;20066;-64
2023/04/19 03:30:56;;;;;;;8.48;2.47;;;;;;;;;;4923258;29;20069;-66
2023/04/19 03:33:25;;;;;;;10.93;2.92;;;;;;;;;;4930174;29;20071;-63
2023/04/19 03:35:53;;;;;;;6.75;2.63;;;;;;;;;;4923913;28;20044;-63
2023/04/19 03:38:21;;;;;;;5.80;3.45;;;;;;;;;;4924850;29;20056;-63
2023/04/19 03:40:50;;;;;;;10.13;2.47;;;;;;;;;;4922705;29;20051;-66
2023/04/19 03:43:19;;;;;;;7.57;2.42;;;;;;;;;;4927059;29;20569;-62
2023/04/19 03:45:48;;;;;;;7.88;3.03;;;;;;;;;;4922426;28;20481;-62
2023/04/19 03:48:16;;;;;;;9.60;3.42;;;;;;;;;;4927254;29;20067;-63
2023/04/19 03:50:44;;;;;;;5.13;2.63;;;;;;;;;;4921399;29;20050;-64
2023/04/19 03:53:13;;;;;;;7.28;2.65;;;;;;;;;;4928052;29;20065;-66
2023/04/19 03:55:41;;;;;;;9.93;3.15;;;;;;;;;;4924789;28;20051;-62
2023/04/19 03:58:10;;;;;;;9.98;3.05;;;;;;;;;;4924562;29;20060;-62
2023/04/19 04:00:39;;;;;;;8.90;3.45;;;;;;;;;;4922784;29;20539;-62
2023/04/19 04:03:08;;;;;;;7.68;3.22;;;;;;;;;;4922561;29;20059;-64
2023/04/19 04:05:37;;;;;;;4.28;2.40;;;;;;;;;;4922620;28;20055;-69
2023/04/19 04:08:06;;;;;;;4.35;2.83;;;;;;;;;;4925635;29;20051;-64
2023/04/19 04:10:34;;;;;;;7.47;3.13;;;;;;;;;;4924919;29;20055;-62
2023/04/19 04:13:02;;;;;;;10.50;3.55;;;;;;;;;;4922393;29;20264;-61
2023/04/19 04:15:31;;;;;;;8.98;3.33;;;;;;;;;;4920068;28;20055;-67
2023/04/19 04:18:00;;;;;;;10.27;3.38;;;;;;;;;;4928233;29;20059;-61
2023/04/19 04:20:29;;;;;;;8.77;3.25;;;;;;;;;;4922226;29;20044;-63
2023/04/19 04:22:57;;;;;;;6.80;3.28;;;;;;;;;;4927366;29;20492;-62
2023/04/19 04:25:27;;;;;;;5.80;3.08;;;;;;;;;;4924471;28;20055;-62
2023/04/19 04:27:56;;;;;;;4.90;2.58;;;;;;;;;;4921820;29;20055;-63
2023/04/19 04:30:25;;;;;;;10.68;2.70;;;;;;;;;;4923074;29;20051;-64
2023/04/19 04:32:56;;;;;;;6.95;2.30;;;;;;;;;;4923704;29;20473;-63
2023/04/19 04:35:26;;;;;;;6.75;2.60;;;;;;;;;;4917928;28;20729;-67
2023/04/19 04:37:55;;;;;;;7.85;3.03;;;;;;;;;;4916475;29;20066;-67
2023/04/19 04:40:23;;;;;;;10.27;2.55;;;;;;;;;;4915578;29;20060;-62
2023/04/19 04:42:53;;;;;;;9.00;3.35;;;;;;;;;;4921222;29;20058;-62
2023/04/19 04:45:21;;;;;;;6.80;2.53;;;;;;;;;;4923578;29;20143;-63
2023/04/19 04:47:50;;;;;;;9.95;3.20;;;;;;;;;;4917418;29;20067;-66
2023/04/19 04:50:19;;;;;;;5.85;3.13;;;;;;;;;;4924210;29;20048;-62
2023/04/19 04:52:48;;;;;;;3.85;2.30;;;;;;;;;;4923009;29;20059;-65
2023/04/19 04:55:17;;;;;;;6.55;2.58;;;;;;;;;;4928290;29;20039;-62
2023/04/19 04:57:45;;;;;;;6.75;3.58;;;;;;;;;;4924540;28;20055;-64
2023/04/19 05:00:14;;;;;;;8.27;2.78;;;;;;;;;;4926594;29;20501;-64
2023/04/19 05:02:42;;;;;;;4.88;2.67;;;;;;;;;;4924675;29;20059;-63
2023/04/19 05:05:11;;;;;;;7.90;2.80;;;;;;;;;;4921655;29;20584;-62
2023/04/19 05:07:39;;;;;;;6.28;3.08;;;;;;;;;;4922788;29;20090;-63
2023/04/19 05:10:11;;;;;;;4.88;2.33;;;;;;;;;;4925471;29;20454;-63
2023/04/19 05:12:39;;;;;;;8.25;3.00;;;;;;;;;;4924444;29;20453;-68
2023/04/19 05:15:08;;;;;;;7.10;2.00;;;;;;;;;;4921307;29;20401;-65
2023/04/19 05:17:36;;;;;;;8.55;3.55;;;;;;;;;;4921920;28;20044;-68
2023/04/19 05:20:05;;;;;;;7.85;2.80;;;;;;;;;;4924566;29;20051;-62
2023/04/19 05:22:34;;;;;;;8.18;3.25;;;;;;;;;;4924163;29;20924;-64
2023/04/19 05:25:02;;;;;;;6.90;3.92;;;;;;;;;;4925468;29;20457;-62
2023/04/19 05:27:32;;;;;;;7.22;3.45;;;;;;;;;;4924389;29;20153;-68
2023/04/19 05:30:00;;;;;;;4.70;2.50;;;;;;;;;;4926582;29;20490;-63
2023/04/19 05:32:29;;;;;;;8.88;3.47;;;;;;;;;;4924554;29;20048;-61
2023/04/19 05:34:58;;;;;;;5.72;2.58;;;;;;;;;;4925174;29;20079;-62
2023/04/19 05:37:26;;;;;;;9.60;3.42;;;;;;;;;;4925200;28;20052;-64
2023/04/19 05:39:54;;;;;;;9.43;3.13;;;;;;;;;;4926480;29;20146;-61
2023/04/19 05:42:23;;;;;;;9.07;2.58;;;;;;;;;;4927309;29;20048;-62
2023/04/19 05:44:52;;;;;;;8.57;3.10;;;;;;;;;;4924075;29;20142;-61
2023/04/19 05:47:21;;;;;;;8.23;3.00;;;;;;;;;;4925653;28;20056;-61
2023/04/19 05:49:49;;;;;;;9.70;3.90;;;;;;;;;;4926194;29;20107;-61
2023/04/19 05:52:17;;;;;;;10.43;3.40;;;;;;;;;;4926603;29;20051;-60
2023/04/19 05:54:46;;;;;;;9.85;3.22;;;;;;;;;;4923141;29;20598;-60
2023/04/19 05:57:14;;;;;;;9.93;2.85;;;;;;;;;;4924082;28;20361;-61
2023/04/19 05:59:42;;;;;;;9.95;3.28;;;;;;;;;;4927785;29;20047;-61
2023/04/19 06:02:12;;;;;;;9.27;2.88;;;;;;;;;;4923415;29;20051;-62
2023/04/19 06:04:41;;;;;;;7.05;3.13;;;;;;;;;;4925692;29;20050;-69
2023/04/19 06:07:10;;;;;;;4.75;2.03;;;;;;;;;;4921425;28;20052;-61
2023/04/19 06:09:58;;;;;;;6.53;3.20;;;;;;;;;;4924998;29;20058;-64
2023/04/19 06:12:26;;;;;;;6.32;2.58;;;;;;;;;;4922860;29;20114;-62
2023/04/19 06:14:55;;;;;;;10.80;3.58;;;;;;;;;;4925536;29;20481;-61
2023/04/19 06:17:25;;;;;;;8.05;2.30;;;;;;;;;;4926394;28;20478;-64
2023/04/19 06:19:54;;;;;;;10.35;3.40;;;;;;;;;;4923781;29;20104;-65
2023/04/19 06:22:22;;;;;;;10.32;3.15;;;;;;;;;;4925684;29;20071;-60
2023/04/19 06:24:51;;;;;;;4.43;2.13;;;;;;;;;;4925463;29;20090;-60
2023/04/19 06:27:19;;;;;;;5.50;2.38;;;;;;;;;;4925885;28;20178;-66
2023/04/19 06:29:47;;;;;;;8.20;2.92;;;;;;;;;;4923713;29;20040;-61
2023/04/19 06:32:18;;;;;;;9.30;3.08;;;;;;;;;;4923824;29;20040;-60
2023/04/19 06:34:48;;;;;;;6.30;2.63;;;;;;;;;;4923272;29;20056;-60
2023/04/19 06:37:16;;;;;;;5.63;2.63;;;;;;;;;;4925235;28;20520;-60
2023/04/19 06:39:44;;;;;;;9.35;3.47;;;;;;;;;;4927552;29;20521;-63
2023/04/19 06:42:13;;;;;;;8.27;3.25;;;;;;;;;;4922907;29;20059;-61
2023/04/19 06:44:41;;;;;;;5.13;2.60;;;;;;;;;;4927169;29;20135;-61
2023/04/19 06:47:10;;;;;;;6.32;3.53;;;;;;;;;;4922416;28;20058;-68
2023/04/19 06:49:38;;;;;;;11.18;2.40;;;;;;;;;;4924721;29;20066;-61
2023/04/19 06:52:08;;;;;;;6.70;2.80;;;;;;;;;;4925202;29;20135;-61
2023/04/19 06:54:36;;;;;;;6.13;2.20;;;;;;;;;;4923091;29;20079;-67
2023/04/19 06:57:05;;;;;;;7.45;2.38;;;;;;;;;;4926096;28;20505;-64
2023/04/19 06:59:34;;;;;;;8.52;2.88;;;;;;;;;;4931383;29;20067;-65
2023/04/19 07:02:02;;;;;;;6.47;2.47;;;;;;;;;;4929093;29;20131;-60
2023/04/19 07:04:31;;;;;;;7.28;2.53;;;;;;;;;;4931133;29;20059;-62
2023/04/19 07:07:00;;;;;;;6.53;2.78;;;;;;;;;;4926907;28;20062;-59
2023/04/19 07:09:29;;;;;;;6.95;3.08;;;;;;;;;;4924527;29;20412;-65
2023/04/19 07:11:58;;;;;;;10.60;3.30;;;;;;;;;;4929935;29;20052;-64
2023/04/19 07:14:26;;;;;;;12.57;3.42;;;;;;;;;;4929893;29;20048;-59
2023/04/19 07:16:55;;;;;;;6.25;2.85;;;;;;;;;;4926070;28;20044;-62
2023/04/19 07:19:23;;;;;;;6.70;3.55;;;;;;;;;;4926301;29;20047;-61
2023/04/19 07:21:51;;;;;;;12.75;3.30;;;;;;;;;;4927867;29;20059;-67
2023/04/19 07:24:20;;;;;;;9.20;3.45;;;;;;;;;;4928242;29;21297;-61
2023/04/19 07:26:49;;;;;;;9.63;3.03;;;;;;;;;;4925021;28;20079;-63
2023/04/19 07:29:18;;;;;;;10.70;3.20;;;;;;;;;;4929840;29;20408;-64
2023/04/19 07:31:46;;;;;;;6.10;2.72;;;;;;;;;;4930015;29;20054;-61
2023/04/19 07:34:15;;;;;;;10.23;3.03;;;;;;;;;;4929204;29;20506;-61
2023/04/19 07:36:43;;;;;;;10.43;3.80;;;;;;;;;;4924443;29;20613;-61
2023/04/19 07:39:12;;;;;;;8.13;2.42;;;;;;;;;;4928044;29;20135;-65
2023/04/19 07:41:40;;;;;;;8.05;3.22;;;;;;;;;;4926721;29;20517;-63
2023/04/19 07:44:10;;;;;;;5.75;2.95;;;;;;;;;;4927294;29;20153;-62
2023/04/19 07:46:39;;;;;;;8.38;3.60;;;;;;;;;;4926179;28;20048;-62
2023/04/19 07:49:07;;;;;;;5.47;2.72;;;;;;;;;;4926212;29;20414;-62
2023/04/19 07:51:36;;;;;;;5.45;2.15;;;;;;;;;;4925823;29;20060;-60
2023/04/19 07:54:04;;;;;;;11.68;3.85;;;;;;;;;;4925682;29;20044;-60
2023/04/19 07:56:33;;;;;;;17.27;3.95;;;;;;;;;;4925222;28;20497;-64
2023/04/19 07:59:01;;;;;;;7.10;2.80;;;;;;;;;;4926249;29;20464;-61
2023/04/19 08:01:38;;;;;;;8.75;3.10;;;;;;;;;;4927612;29;20119;-59
2023/04/19 08:04:06;;;;;;;10.43;3.63;;;;;;;;;;4925450;29;20932;-60
2023/04/19 08:06:38;;;;;;;4.00;2.15;;;;;;;;;;4925557;28;20091;-60
2023/04/19 08:09:06;;;;;;;4.72;2.05;;;;;;;;;;4926632;29;20044;-61
2023/04/19 08:11:35;;;;;;;8.73;2.90;;;;;;;;;;4927762;29;20058;-63
2023/04/19 08:14:03;;;;;;;7.18;2.70;;;;;;;;;;4927503;29;20493;-60
2023/04/19 08:16:50;;;;;;;6.55;2.42;;;;;;;;;;4927776;28;20058;-60
2023/04/19 08:19:21;;;;;;;7.35;2.70;;;;;;;;;;4926665;29;20146;-63
2023/04/19 08:21:50;;;;;;;7.25;2.80;;;;;;;;;;4929233;29;20551;-60
2023/04/19 08:24:18;;;;;;;5.55;2.47;;;;;;;;;;4928826;29;20159;-60
2023/04/19 08:26:52;;;;;;;8.27;3.42;;;;;;;;;;4928101;28;20642;-62
2023/04/19 08:29:20;;;;;;;6.55;2.90;;;;;;;;;;4924595;29;20050;-70
2023/04/19 08:31:50;;;;;;;13.85;3.50;;;;;;;;;;4927559;29;20134;-62
2023/04/19 08:34:19;;;;;;;6.60;2.83;;;;;;;;;;4929592;29;20048;-68
2023/04/19 08:36:47;;;;;;;7.47;2.50;;;;;;;;;;4928056;29;20051;-61
2023/04/19 08:39:31;;;;;;;7.30;2.97;;;;;;;;;;4928157;29;20055;-66
2023/04/19 08:42:05;;;;;;;12.48;3.97;;;;;;;;;;4926513;29;20047;-68
2023/04/19 08:44:46;;;;;;;11.25;3.25;;;;;;;;;;4924679;29;20055;-66
2023/04/19 08:47:19;;;;;;;10.25;2.88;;;;;;;;;;4925436;28;20063;-62
2023/04/19 08:49:58;;;;;;;7.93;2.60;;;;;;;;;;4926047;29;20050;-62
2023/04/19 08:52:44;;;;;;;5.55;2.20;;;;;;;;;;4925755;29;20418;-60
2023/04/19 08:55:24;;;;;;;12.10;3.50;;;;;;;;;;4927059;28;20062;-62
2023/04/19 08:57:52;;;;;;;9.50;3.78;;;;;;;;;;4927531;29;20051;-60
2023/04/19 09:00:22;;;;;;;8.23;3.80;;;;;;;;;;4925264;29;20503;-60
2023/04/19 09:02:53;;;;;;;8.18;3.03;;;;;;;;;;4928299;29;20051;-61
2023/04/19 09:05:22;;;;;;;9.65;3.55;;;;;;;;;;4926341;29;20078;-62
2023/04/19 09:07:51;;;;;;;11.88;3.92;;;;;;;;;;4928133;29;20078;-64
2023/04/19 09:10:20;;;;;;;7.65;3.72;;;;;;;;;;4926744;29;20058;-61
2023/04/19 09:13:02;;;;;;;4.43;2.85;;;;;;;;;;4925269;29;20044;-64
2023/04/19 09:15:37;;;;;;;7.80;3.10;;;;;;;;;;4927276;29;21166;-61
2023/04/19 09:18:08;;;;;;;11.00;3.35;;;;;;;;;;4926342;29;21491;-59
2023/04/19 09:20:37;;;;;;;23.20;3.25;;;;;;;;;;4927589;29;20516;-61
2023/04/19 09:23:06;;;;;;;11.57;3.42;;;;;;;;;;4925880;29;20039;-60
2023/04/19 09:25:35;;;;;;;8.05;3.60;;;;;;;;;;4926014;28;20157;-70
2023/04/19 09:28:23;;;;;;;5.38;2.33;;;;;;;;;;4925710;29;20044;-64
2023/04/19 09:30:52;;;;;;;5.57;2.90;;;;;;;;;;4923291;29;20127;-64
2023/04/19 09:33:34;;;;;;;9.07;3.13;;;;;;;;;;4926253;29;20043;-62
2023/04/19 09:36:03;;;;;;;8.05;3.00;;;;;;;;;;4925491;28;20131;-63
2023/04/19 09:38:32;;;;;;;9.98;2.47;;;;;;;;;;4923771;29;20142;-63
2023/04/19 09:41:07;;;;;;;5.20;2.70;;;;;;;;;;4925968;29;20059;-61
2023/04/19 09:43:36;;;;;;;9.32;3.40;;;;;;;;;;4926982;29;20493;-61
2023/04/19 09:46:31;;;;;;;8.07;2.60;;;;;;;;;;4923634;28;20060;-59
2023/04/19 09:49:22;;;;;;;10.23;4.15;;;;;;;;;;4925510;29;20132;-61
2023/04/19 09:52:10;;;;;;;6.85;2.78;;;;;;;;;;4925911;29;20143;-60
2023/04/19 09:54:38;;;;;;;9.60;2.13;;;;;;;;;;4924068;29;20115;-65
2023/04/19 09:57:06;;;;;;;8.18;3.95;;;;;;;;;;4923687;28;20142;-63
2023/04/19 09:59:35;;;;;;;8.23;3.20;;;;;;;;;;4926180;29;20051;-64
2023/04/19 10:02:05;;;;;;;11.32;3.30;;;;;;;;;;4926133;29;20167;-61
2023/04/19 10:04:36;;;;;;;8.77;2.60;;;;;;;;;;4922311;29;20072;-60
2023/04/19 10:07:25;;;;;;;5.95;2.33;;;;;;;;;;4925258;28;20765;-61
2023/04/19 10:09:59;;;;;;;5.80;2.95;;;;;;;;;;4926325;29;20063;-61
2023/04/19 10:12:32;;;;;;;13.70;2.95;;;;;;;;;;4926319;29;20079;-64
2023/04/19 10:15:04;;;;;;;9.30;3.05;;;;;;;;;;4924983;29;20059;-61
2023/04/19 10:17:32;;;;;;;9.02;2.97;;;;;;;;;;4926573;28;20201;-63
2023/04/19 10:20:08;;;;;;;9.98;2.90;;;;;;;;;;4924275;29;20394;-61
2023/04/19 10:22:37;;;;;;;5.95;3.00;;;;;;;;;;4921447;29;20040;-62
2023/04/19 10:25:09;;;;;;;6.50;2.20;;;;;;;;;;4927438;29;20044;-63
2023/04/19 10:27:38;;;;;;;12.48;2.83;;;;;;;;;;4922766;29;20050;-63
2023/04/19 10:30:11;;;;;;;5.38;3.00;;;;;;;;;;4925861;29;20146;-60
2023/04/19 10:32:40;;;;;;;7.82;3.05;;;;;;;;;;4928190;29;20058;-62
2023/04/19 10:35:11;;;;;;;5.63;3.35;;;;;;;;;;4931423;29;20050;-64
2023/04/19 10:37:41;;;;;;;4.68;2.15;;;;;;;;;;4931175;29;20583;-64
2023/04/19 10:40:11;;;;;;;12.50;2.42;;;;;;;;;;4930799;29;20572;-68
2023/04/19 10:42:58;;;;;;;8.85;2.72;;;;;;;;;;4932794;29;20457;-63
2023/04/19 10:45:36;;;;;;;10.45;2.85;;;;;;;;;;4929630;28;20056;-64
2023/04/19 10:48:04;;;;;;;14.93;3.22;;;;;;;;;;4929529;29;20454;-66
2023/04/19 10:50:48;;;;;;;8.52;2.78;;;;;;;;;;4932101;29;20083;-63
2023/04/19 10:53:31;;;;;;;8.13;2.95;;;;;;;;;;4930985;28;20736;-63
2023/04/19 10:56:01;;;;;;;7.10;2.60;;;;;;;;;;4931822;29;20055;-62
2023/04/19 10:58:29;;;;;;;9.90;2.58;;;;;;;;;;4932287;29;20054;-64
2023/04/19 11:01:12;;;;;;;4.22;2.53;;;;;;;;;;4930744;29;20052;-63
2023/04/19 11:03:52;;;;;;;5.93;2.22;;;;;;;;;;4932171;29;20060;-63
2023/04/19 11:06:25;;;;;;;4.07;1.50;;;;;;;;;;4930899;29;20047;-62
2023/04/19 11:08:54;;;;;;;8.45;2.95;;;;;;;;;;4931692;29;20166;-64
2023/04/19 11:11:25;;;;;;;4.85;2.05;;;;;;;;;;4931640;29;20054;-69
2023/04/19 11:13:54;;;;;;;5.65;1.83;;;;;;;;;;4931766;29;20099;-64
2023/04/19 11:16:22;;;;;;;5.38;2.42;;;;;;;;;;4929400;28;20094;-64
2023/04/19 11:19:09;;;;;;;5.75;2.45;;;;;;;;;;4931587;29;20083;-62
2023/04/19 11:21:40;;;;;;;7.85;2.90;;;;;;;;;;4927439;29;20382;-63
2023/04/19 11:24:09;;;;;;;4.20;2.22;;;;;;;;;;4928129;29;20087;-62
2023/04/19 11:26:39;;;;;;;6.90;2.47;;;;;;;;;;4928776;28;20059;-64
2023/04/19 11:29:07;;;;;;;7.43;2.72;;;;;;;;;;4926741;29;20528;-62
2023/04/19 11:31:36;;;;;;;7.03;2.30;;;;;;;;;;4930810;29;20055;-69
2023/04/19 11:34:04;;;;;;;6.70;2.97;;;;;;;;;;4931675;29;20078;-65
2023/04/19 11:36:35;;;;;;;5.65;3.10;;;;;;;;;;4928519;28;20413;-63
2023/04/19 11:39:06;;;;;;;6.47;2.75;;;;;;;;;;4932604;29;20047;-66
2023/04/19 11:41:39;;;;;;;11.73;3.78;;;;;;;;;;4928779;29;20106;-63
2023/04/19 11:44:13;;;;;;;9.98;2.92;;;;;;;;;;4928400;29;20111;-63
2023/04/19 11:46:42;;;;;;;5.47;3.30;;;;;;;;;;4927943;28;20055;-66
2023/04/19 11:49:11;;;;;;;8.02;2.95;;;;;;;;;;4927770;29;20362;-65
2023/04/19 11:51:42;;;;;;;12.15;3.30;;;;;;;;;;4923509;29;20065;-61
2023/04/19 11:54:15;;;;;;;5.43;1.52;;;;;;;;;;4925517;29;20051;-65
2023/04/19 11:57:03;;;;;;;7.07;2.70;;;;;;;;;;4924067;28;20075;-62
2023/04/19 11:59:33;;;;;;;4.28;2.13;;;;;;;;;;4927491;29;20153;-62
2023/04/19 12:02:05;;;;;;;8.23;3.25;;;;;;;;;;4922214;29;20047;-62
2023/04/19 12:04:34;;;;;;;6.10;3.17;;;;;;;;;;4924571;29;20059;-66
2023/04/19 12:07:03;;;;;;;7.95;2.85;;;;;;;;;;4924652;28;20040;-61
2023/04/19 12:09:34;;;;;;;8.63;3.60;;;;;;;;;;4927054;29;20052;-62
2023/04/19 12:12:02;;;;;;;6.95;3.15;;;;;;;;;;4927288;29;20143;-61
2023/04/19 12:14:33;;;;;;;10.13;4.32;;;;;;;;;;4925708;29;20093;-67
2023/04/19 12:17:08;;;;;;;7.05;3.13;;;;;;;;;;4925276;28;20090;-61
2023/04/19 12:19:37;;;;;;;6.60;2.95;;;;;;;;;;4926545;29;20056;-66
2023/04/19 12:22:09;;;;;;;4.57;2.65;;;;;;;;;;4926198;29;20267;-63
2023/04/19 12:24:38;;;;;;;15.20;2.08;;;;;;;;;;4927537;29;20138;-67
2023/04/19 12:27:07;;;;;;;5.97;1.83;;;;;;;;;;4928060;28;20453;-61
2023/04/19 12:29:37;;;;;;;4.20;1.50;;;;;;;;;;4923869;29;20051;-64
2023/04/19 12:32:05;;;;;;;4.38;2.17;;;;;;;;;;4926445;29;20052;-61
2023/04/19 12:34:34;;;;;;;5.60;1.55;;;;;;;;;;4926168;29;20429;-65
2023/04/19 12:37:03;;;;;;;5.53;1.77;;;;;;;;;;4922314;29;20139;-62
2023/04/19 12:39:31;;;;;;;4.80;1.55;;;;;;;;;;4927026;29;20056;-63
2023/04/19 12:42:00;;;;;;;3.10;1.58;;;;;;;;;;4921265;29;20051;-63
2023/04/19 12:44:28;;;;;;;3.03;1.38;;;;;;;;;;4926457;29;20095;-62
2023/04/19 12:46:58;;;;;;;4.05;1.73;;;;;;;;;;4924494;29;20067;-65
2023/04/19 12:49:26;;;;;;;3.17;1.52;;;;;;;;;;4926073;29;20083;-62
2023/04/19 12:51:54;;;;;;;3.13;1.30;;;;;;;;;;4925279;29;20057;-63
2023/04/19 12:54:24;;;;;;;2.53;1.17;;;;;;;;;;4927092;29;20055;-63
2023/04/19 12:56:53;;;;;;;2.10;1.13;;;;;;;;;;4925542;28;20083;-62
2023/04/19 12:59:22;;;;;;;2.58;0.95;;;;;;;;;;4926656;29;20183;-62
2023/04/19 13:01:50;;;;;;;2.75;1.35;;;;;;;;;;4926657;29;20057;-65
2023/04/19 13:04:20;;;;;;;2.90;1.30;;;;;;;;;;4925085;29;20079;-62
2023/04/19 13:06:49;;;;;;;4.85;1.65;;;;;;;;;;4925021;28;20130;-66
2023/04/19 13:09:17;;;;;;;4.07;1.55;;;;;;;;;;4922005;29;20039;-62
2023/04/19 13:11:46;;;;;;;2.63;1.48;;;;;;;;;;4927569;29;20051;-69
2023/04/19 13:14:14;;;;;;;4.50;1.15;;;;;;;;;;4929505;29;20559;-63
2023/04/19 13:16:43;;;;;;;2.33;1.02;;;;;;;;;;4923628;29;20075;-63
2023/04/19 13:19:11;;;;;;;2.38;1.02;;;;;;;;;;4928047;29;20071;-62
2023/04/19 13:21:42;;;;;;;3.33;1.13;;;;;;;;;;4924033;29;20052;-66
2023/04/19 13:24:10;;;;;;;2.47;1.10;;;;;;;;;;4925112;29;20138;-61
2023/04/19 13:26:39;;;;;;;2.38;1.20;;;;;;;;;;4923489;29;20051;-62
2023/04/19 13:29:08;;;;;;;5.35;1.83;;;;;;;;;;4925309;29;20598;-61
2023/04/19 13:31:36;;;;;;;6.75;1.13;;;;;;;;;;4926050;29;20138;-60
2023/04/19 13:34:05;;;;;;;3.92;1.20;;;;;;;;;;4925901;29;20154;-66
2023/04/19 13:36:33;;;;;;;1.42;0.90;;;;;;;;;;4926364;28;20058;-61
2023/04/19 13:39:03;;;;;;;2.50;0.70;;;;;;;;;;4925644;29;20148;-61
2023/04/19 13:41:34;;;;;;;1.65;1.15;;;;;;;;;;4926006;29;20052;-61
2023/04/19 13:44:03;;;;;;;0.85;0.57;;;;;;;;;;4924531;29;20139;-61
2023/04/19 13:46:31;;;;;;;1.48;1.00;;;;;;;;;;4924553;28;20062;-64
2023/04/19 13:49:00;;;;;;;0.93;0.70;;;;;;;;;;4921395;29;20050;-63
2023/04/19 13:51:28;;;;;;;2.97;0.85;;;;;;;;;;4924479;29;20162;-61
2023/04/19 13:54:17;;;;;;;2.63;1.02;;;;;;;;;;4925473;29;20050;-61
2023/04/19 13:56:47;;;;;;;2.85;1.05;;;;;;;;;;4923432;28;20568;-61
2023/04/19 13:59:19;;;;;;;3.22;1.45;;;;;;;;;;4929514;29;20121;-63
2023/04/19 14:01:48;;;;;;;0.98;0.70;;;;;;;;;;4924402;29;20087;-61
2023/04/19 14:04:16;;;;;;;2.47;0.80;;;;;;;;;;4926146;29;20051;-64
2023/04/19 14:06:45;;;;;;;0.50;0.50;;;;;;;;;;4925144;29;20138;-67
2023/04/19 14:09:14;;;;;;;0.85;0.50;;;;;;;;;;4923628;29;20504;-67
2023/04/19 14:11:44;;;;;;;0.98;0.55;;;;;;;;;;4924929;29;20055;-61
2023/04/19 14:14:12;;;;;;;2.75;0.65;;;;;;;;;;4924906;29;20215;-61
2023/04/19 14:16:42;;;;;;;2.55;0.80;;;;;;;;;;4924405;28;20111;-67
2023/04/19 14:19:10;;;;;;;0.73;0.30;;;;;;;;;;4923403;29;20079;-61
2023/04/19 14:21:38;;;;;;;1.30;0.73;;;;;;;;;;4927007;29;20421;-61
2023/04/19 14:24:07;;;;;;;2.42;0.85;;;;;;;;;;4924849;29;20862;-66
2023/04/19 14:26:36;;;;;;;1.05;0.73;;;;;;;;;;4924214;28;20062;-61
2023/04/19 14:29:05;;;;;;;0.90;0.52;;;;;;;;;;4923062;29;20054;-61
2023/04/19 14:31:34;;;;;;;3.50;0.80;;;;;;;;;;4922008;29;20063;-67
2023/04/19 14:34:02;;;;;;;1.38;0.63;;;;;;;;;;4923921;29;20090;-63
2023/04/19 14:36:31;;;;;;;1.27;0.65;;;;;;;;;;4924139;28;20047;-60
2023/04/19 14:38:59;;;;;;;1.25;0.73;;;;;;;;;;4922963;29;20039;-65
2023/04/19 14:41:27;;;;;;;3.38;1.13;;;;;;;;;;4923953;29;20055;-61
2023/04/19 14:43:56;;;;;;;0.60;0.60;;;;;;;;;;4925042;29;20166;-62
2023/04/19 14:46:25;;;;;;;2.92;2.20;;;;;;;;;;4925788;28;20059;-60
2023/04/19 14:48:56;;;;;;;1.80;0.75;;;;;;;;;;4924404;29;20519;-60
2023/04/19 14:51:24;;;;;;;2.38;1.23;;;;;;;;;;4926254;29;20071;-60
2023/04/19 14:53:52;;;;;;;1.58;0.80;;;;;;;;;;4924924;29;20050;-60
2023/04/19 14:56:21;;;;;;;1.83;0.68;;;;;;;;;;4924774;28;20060;-66